createdAt,value
2018-02-23T00:00:22.489Z,49.73
2018-02-23T00:02:50.847Z,51.03
2018-02-23T00:05:18.451Z,52.53
2018-02-23T00:07:47.730Z,51.87
2018-02-23T00:10:15.332Z,45.50
2018-02-23T00:12:42.987Z,53.17
2018-02-23T00:15:10.628Z,53.63
2018-02-23T00:17:39.097Z,48.27
2018-02-23T00:20:06.684Z,55.87
2018-02-23T00:22:41.245Z,55.50
2018-02-23T00:25:08.826Z,49.53
2018-02-23T00:27:36.430Z,59.17
2018-02-23T00:30:04.038Z,49.10
2018-02-23T00:32:32.298Z,49.57
2018-02-23T00:34:59.924Z,54.33
2018-02-23T00:37:27.520Z,53.50
2018-02-23T00:39:55.106Z,57.87
2018-02-23T00:42:22.748Z,58.60
2018-02-23T00:44:50.347Z,56.30
2018-02-23T00:47:17.932Z,57.23
2018-02-23T00:49:45.566Z,51.50
2018-02-23T00:52:13.910Z,58.60
2018-02-23T00:54:41.538Z,57.10
2018-02-23T00:57:09.974Z,58.60
2018-02-23T00:59:37.571Z,53.63
2018-02-23T01:02:05.169Z,54.87
2018-02-23T01:04:32.760Z,59.07
2018-02-23T01:07:00.389Z,58.03
2018-02-23T01:09:27.973Z,54.27
2018-02-23T01:11:55.603Z,59.43
2018-02-23T01:14:23.224Z,57.60
2018-02-23T01:16:50.820Z,64.10
2018-02-23T01:19:18.406Z,58.00
2018-02-23T01:21:45.994Z,58.40
2018-02-23T01:24:13.603Z,56.50
2018-02-23T01:26:42.030Z,57.63
2018-02-23T01:29:09.639Z,53.40
2018-02-23T01:31:37.235Z,56.93
2018-02-23T01:34:04.854Z,59.20
2018-02-23T01:36:32.441Z,51.80
2018-02-23T01:39:00.044Z,61.87
2018-02-23T01:41:27.643Z,56.80
2018-02-23T01:43:55.254Z,54.07
2018-02-23T01:46:22.829Z,55.67
2018-02-23T01:48:50.437Z,55.50
2018-02-23T01:51:18.040Z,59.23
2018-02-23T01:53:46.413Z,61.60
2018-02-23T01:56:14.008Z,60.43
2018-02-23T01:58:41.606Z,62.47
2018-02-23T02:01:09.197Z,60.57
2018-02-23T02:03:37.146Z,56.13
2018-02-23T02:06:04.824Z,59.87
2018-02-23T02:08:32.438Z,55.27
2018-02-23T02:11:00.033Z,59.83
2018-02-23T02:13:27.695Z,64.30
2018-02-23T02:15:55.294Z,61.10
2018-02-23T02:18:22.919Z,60.70
2018-02-23T02:20:51.194Z,59.90
2018-02-23T02:23:18.779Z,59.30
2018-02-23T02:25:46.409Z,62.87
2018-02-23T02:28:14.768Z,57.70
2018-02-23T02:30:42.435Z,60.43
2018-02-23T02:33:10.152Z,62.63
2018-02-23T02:35:37.730Z,57.07
2018-02-23T02:38:05.316Z,60.83
2018-02-23T02:40:32.989Z,57.43
2018-02-23T02:43:00.628Z,63.40
2018-02-23T02:45:28.197Z,60.77
2018-02-23T02:47:55.778Z,58.50
2018-02-23T02:50:23.360Z,59.10
2018-02-23T02:52:50.987Z,66.23
2018-02-23T02:55:18.557Z,54.10
2018-02-23T02:57:46.202Z,60.40
2018-02-23T03:00:13.805Z,58.60
2018-02-23T03:02:41.381Z,58.47
2018-02-23T03:05:08.943Z,61.77
2018-02-23T03:07:36.512Z,60.93
2018-02-23T03:10:04.152Z,57.80
2018-02-23T03:12:32.224Z,58.23
2018-02-23T03:14:59.810Z,62.80
2018-02-23T03:17:27.409Z,60.53
2018-02-23T03:19:55.759Z,61.87
2018-02-23T03:22:23.353Z,66.73
2018-02-23T03:24:50.956Z,58.50
2018-02-23T03:27:18.630Z,65.40
2018-02-23T03:29:46.229Z,60.80
2018-02-23T03:32:14.277Z,67.40
2018-02-23T03:34:41.885Z,58.77
2018-02-23T03:37:11.962Z,65.03
2018-02-23T03:39:40.407Z,63.27
2018-02-23T03:42:08.757Z,62.90
2018-02-23T03:44:36.377Z,61.63
2018-02-23T03:47:03.979Z,63.13
2018-02-23T03:49:31.600Z,57.90
2018-02-23T03:51:59.188Z,65.93
2018-02-23T03:54:26.810Z,63.50
2018-02-23T03:56:55.181Z,63.70
2018-02-23T03:59:22.778Z,63.67
2018-02-23T04:01:50.380Z,59.77
2018-02-23T04:04:17.995Z,62.40
2018-02-23T04:06:45.600Z,64.63
2018-02-23T04:09:13.294Z,64.27
2018-02-23T04:11:40.886Z,69.60
2018-02-23T04:14:08.478Z,63.20
2018-02-23T04:16:36.078Z,70.67
2018-02-23T04:19:03.681Z,67.83
2018-02-23T04:21:31.281Z,59.20
2018-02-23T04:24:00.092Z,74.03
2018-02-23T04:26:27.715Z,69.67
2018-02-23T04:28:56.093Z,66.63
2018-02-23T04:31:24.448Z,68.33
2018-02-23T04:33:52.034Z,66.97
2018-02-23T04:36:20.432Z,64.20
2018-02-23T04:38:48.791Z,69.47
2018-02-23T04:41:16.383Z,78.17
2018-02-23T04:43:44.722Z,70.23
2018-02-23T04:46:12.367Z,68.23
2018-02-23T04:48:39.968Z,69.43
2018-02-23T04:51:07.574Z,73.50
2018-02-23T04:53:35.170Z,71.83
2018-02-23T04:56:02.842Z,77.93
2018-02-23T04:58:30.462Z,69.23
2018-02-23T05:00:58.806Z,67.77
2018-02-23T05:03:26.433Z,72.33
2018-02-23T05:05:54.071Z,73.20
2018-02-23T05:08:22.444Z,66.33
2018-02-23T05:10:50.844Z,69.03
2018-02-23T05:13:18.411Z,73.23
2018-02-23T05:15:46.034Z,73.43
2018-02-23T05:18:13.651Z,68.97
2018-02-23T05:20:41.284Z,72.10
2018-02-23T05:23:08.858Z,74.47
2018-02-23T05:25:37.200Z,67.10
2018-02-23T05:28:04.838Z,72.97
2018-02-23T05:30:33.426Z,70.73
2018-02-23T05:33:01.041Z,72.47
2018-02-23T05:35:28.632Z,70.00
2018-02-23T05:37:57.034Z,70.77
2018-02-23T05:40:24.621Z,71.63
2018-02-23T05:42:52.189Z,76.13
2018-02-23T05:45:19.781Z,71.13
2018-02-23T05:47:47.406Z,70.80
2018-02-23T05:50:15.031Z,72.13
2018-02-23T05:52:42.661Z,74.67
2018-02-23T05:55:10.263Z,72.50
2018-02-23T05:57:37.869Z,74.20
2018-02-23T06:00:05.469Z,75.67
2018-02-23T06:02:33.078Z,66.87
2018-02-23T06:05:01.458Z,73.57
2018-02-23T06:07:29.815Z,72.23
2018-02-23T06:09:57.454Z,69.27
2018-02-23T06:12:25.034Z,77.67
2018-02-23T06:14:52.658Z,77.43
2018-02-23T06:17:25.801Z,73.37
2018-02-23T06:19:59.084Z,68.53
2018-02-23T06:22:26.706Z,71.77
2018-02-23T06:24:54.319Z,70.73
2018-02-23T06:27:21.894Z,83.80
2018-02-23T06:29:49.469Z,73.07
2018-02-23T06:32:17.199Z,71.30
2018-02-23T06:34:44.787Z,74.40
2018-02-23T06:37:12.351Z,75.23
2018-02-23T06:39:39.944Z,73.00
2018-02-23T06:42:08.285Z,77.30
2018-02-23T06:44:35.865Z,68.57
2018-02-23T06:47:10.302Z,72.97
2018-02-23T06:49:37.895Z,69.43
2018-02-23T06:52:05.504Z,72.80
2018-02-23T06:54:33.125Z,70.43
2018-02-23T06:57:00.731Z,73.57
2018-02-23T06:59:28.324Z,71.70
2018-02-23T07:01:55.942Z,71.13
2018-02-23T07:04:23.518Z,64.47
2018-02-23T07:06:51.082Z,73.23
2018-02-23T07:09:18.844Z,64.17
2018-02-23T07:11:46.645Z,67.53
2018-02-23T07:14:14.234Z,67.33
2018-02-23T07:16:42.633Z,70.53
2018-02-23T07:19:10.975Z,68.47
2018-02-23T07:21:38.555Z,68.87
2018-02-23T07:24:06.807Z,74.10
2018-02-23T07:26:34.404Z,64.47
2018-02-23T07:29:02.004Z,68.83
2018-02-23T07:31:29.593Z,71.90
2018-02-23T07:33:57.184Z,68.27
2018-02-23T07:36:24.785Z,68.20
2018-02-23T07:38:52.378Z,64.67
2018-02-23T07:41:20.008Z,72.23
2018-02-23T07:43:48.394Z,65.30
2018-02-23T07:46:16.737Z,61.63
2018-02-23T07:48:44.342Z,66.67
2018-02-23T07:51:12.751Z,68.23
2018-02-23T07:53:40.405Z,71.30
2018-02-23T07:56:08.065Z,66.53
2018-02-23T07:58:35.709Z,64.43
2018-02-23T08:01:03.909Z,64.20
2018-02-23T08:03:32.261Z,60.93
2018-02-23T08:06:00.654Z,62.73
2018-02-23T08:08:29.043Z,62.57
2018-02-23T08:10:57.393Z,63.53
2018-02-23T08:13:24.987Z,63.60
2018-02-23T08:15:53.370Z,63.10
2018-02-23T08:18:21.008Z,62.07
2018-02-23T08:20:48.594Z,59.57
2018-02-23T08:23:16.194Z,58.40
2018-02-23T08:25:44.498Z,57.47
2018-02-23T08:28:12.144Z,59.93
2018-02-23T08:30:39.740Z,59.40
2018-02-23T08:33:07.356Z,58.70
2018-02-23T08:35:35.715Z,56.73
2018-02-23T08:38:03.341Z,57.73
2018-02-23T08:40:30.964Z,55.77
2018-02-23T08:42:59.318Z,57.27
2018-02-23T08:45:26.915Z,54.17
2018-02-23T08:47:55.297Z,51.53
2018-02-23T08:50:23.645Z,51.57
2018-02-23T08:52:51.237Z,50.83
2018-02-23T08:55:18.890Z,51.50
2018-02-23T08:57:46.468Z,49.73
2018-02-23T09:00:19.850Z,47.30
2018-02-23T09:02:47.449Z,50.77
2018-02-23T09:05:15.048Z,46.80
2018-02-23T09:07:42.634Z,49.07
2018-02-23T09:10:10.246Z,45.60
2018-02-23T09:12:37.838Z,45.77
2018-02-23T09:15:05.435Z,48.07
2018-02-23T09:17:33.094Z,45.90
2018-02-23T09:20:00.730Z,43.43
2018-02-23T09:22:28.334Z,44.63
2018-02-23T09:24:55.945Z,42.57
2018-02-23T09:27:23.607Z,40.77
2018-02-23T09:29:51.240Z,39.60
2018-02-23T09:32:38.679Z,42.80
2018-02-23T09:35:07.048Z,37.43
2018-02-23T09:37:35.436Z,41.30
2018-02-23T09:40:03.797Z,36.27
2018-02-23T09:42:31.407Z,32.40
2018-02-23T09:44:59.132Z,36.77
2018-02-23T09:47:26.736Z,33.97
2018-02-23T09:49:55.122Z,30.43
2018-02-23T09:52:23.488Z,32.27
2018-02-23T09:54:51.840Z,30.13
2018-02-23T09:57:19.504Z,35.23
2018-02-23T09:59:47.126Z,32.43
2018-02-23T10:02:14.702Z,28.03
2018-02-23T10:04:43.013Z,30.37
2018-02-23T10:07:10.608Z,29.87
2018-02-23T10:09:38.206Z,27.27
2018-02-23T10:12:05.825Z,26.37
2018-02-23T10:14:33.427Z,25.47
2018-02-23T10:17:01.789Z,24.27
2018-02-23T10:19:30.124Z,22.67
2018-02-23T10:21:58.418Z,24.07
2018-02-23T10:24:25.999Z,22.30
2018-02-23T10:26:53.621Z,21.07
2018-02-23T10:29:21.232Z,19.13
2018-02-23T10:31:48.818Z,20.03
2018-02-23T10:34:17.202Z,15.43
2018-02-23T10:36:44.812Z,17.60
2018-02-23T10:39:12.498Z,17.57
2018-02-23T10:41:40.139Z,17.20
2018-02-23T10:44:07.795Z,17.20
2018-02-23T10:46:35.413Z,14.30
2018-02-23T10:49:03.909Z,15.60
2018-02-23T10:51:31.524Z,18.37
2018-02-23T10:53:59.173Z,14.80
2018-02-23T10:56:26.767Z,16.53
2018-02-23T10:58:54.368Z,15.83
2018-02-23T11:01:22.012Z,13.47
2018-02-23T11:03:49.594Z,16.47
2018-02-23T11:06:17.179Z,15.53
2018-02-23T11:08:45.547Z,14.57
2018-02-23T11:11:13.168Z,16.13
2018-02-23T11:13:40.746Z,16.03
2018-02-23T11:16:08.348Z,14.03
2018-02-23T11:18:35.949Z,14.27
2018-02-23T11:21:03.549Z,14.40
2018-02-23T11:23:31.115Z,15.00
2018-02-23T11:25:58.710Z,16.23
2018-02-23T11:28:27.599Z,14.07
2018-02-23T11:30:55.952Z,15.90
2018-02-23T11:33:23.573Z,15.13
2018-02-23T11:35:51.159Z,14.40
2018-02-23T11:38:18.774Z,14.33
2018-02-23T11:40:46.875Z,15.07
2018-02-23T11:43:15.236Z,15.17
2018-02-23T11:45:42.836Z,15.40
2018-02-23T11:48:10.393Z,14.97
2018-02-23T11:50:38.753Z,15.97
2018-02-23T11:53:07.112Z,15.80
2018-02-23T11:55:35.632Z,16.10
2018-02-23T11:58:07.982Z,17.50
2018-02-23T12:00:36.342Z,14.87
2018-02-23T12:03:03.962Z,17.53
2018-02-23T12:05:32.323Z,15.93
2018-02-23T12:07:59.894Z,17.97
2018-02-23T12:10:27.473Z,17.07
2018-02-23T12:12:55.329Z,17.30
2018-02-23T12:15:23.712Z,15.07
2018-02-23T12:17:52.075Z,16.47
2018-02-23T12:20:19.646Z,16.33
2018-02-23T12:22:48.158Z,16.97
2018-02-23T12:25:16.499Z,17.30
2018-02-23T12:27:44.099Z,14.53
2018-02-23T12:30:11.683Z,16.60
2018-02-23T12:32:39.309Z,19.43
2018-02-23T12:35:06.938Z,17.30
2018-02-23T12:37:34.521Z,15.53
2018-02-23T12:40:02.086Z,18.17
2018-02-23T12:42:29.665Z,19.07
2018-02-23T12:44:57.271Z,15.17
2018-02-23T12:47:24.862Z,15.83
2018-02-23T12:49:52.516Z,16.23
2018-02-23T12:52:20.111Z,17.63
2018-02-23T12:54:47.682Z,17.97
2018-02-23T12:57:15.278Z,17.97
2018-02-23T12:59:42.875Z,17.40
2018-02-23T13:02:10.457Z,17.23
2018-02-23T13:04:38.060Z,16.60
2018-02-23T13:07:05.633Z,16.80
2018-02-23T13:09:33.222Z,17.40
2018-02-23T13:12:00.796Z,17.53
2018-02-23T13:14:33.933Z,14.60
2018-02-23T13:17:01.501Z,14.67
2018-02-23T13:19:29.091Z,17.53
2018-02-23T13:21:57.473Z,14.80
2018-02-23T13:24:25.840Z,14.30
2018-02-23T13:26:53.979Z,15.97
2018-02-23T13:29:21.614Z,18.10
2018-02-23T13:31:50.029Z,17.70
2018-02-23T13:34:17.620Z,19.40
2018-02-23T13:36:45.222Z,18.27
2018-02-23T13:39:13.673Z,17.30
2018-02-23T13:41:41.283Z,16.70
2018-02-23T13:44:10.426Z,15.87
2018-02-23T13:46:38.044Z,17.03
2018-02-23T13:49:06.389Z,16.00
2018-02-23T13:51:33.985Z,16.87
2018-02-23T13:54:08.015Z,16.17
2018-02-23T13:56:35.637Z,14.33
2018-02-23T13:59:03.259Z,13.33
2018-02-23T14:01:30.883Z,15.70
2018-02-23T14:03:58.469Z,14.37
2018-02-23T14:06:33.718Z,15.97
2018-02-23T14:09:01.325Z,14.87
2018-02-23T14:11:28.932Z,12.47
2018-02-23T14:13:56.550Z,12.80
2018-02-23T14:16:24.109Z,14.27
2018-02-23T14:18:52.542Z,13.50
2018-02-23T14:21:21.017Z,11.73
2018-02-23T14:23:48.623Z,13.57
2018-02-23T14:26:17.008Z,12.70
2018-02-23T14:28:44.587Z,11.57
2018-02-23T14:31:12.158Z,13.40
2018-02-23T14:33:39.735Z,11.70
2018-02-23T14:36:08.181Z,15.10
2018-02-23T14:38:35.777Z,15.40
2018-02-23T14:41:03.445Z,14.23
2018-02-23T14:43:31.044Z,15.97
2018-02-23T14:45:58.642Z,15.53
2018-02-23T14:48:37.978Z,14.10
2018-02-23T14:51:10.260Z,13.23
2018-02-23T14:53:37.839Z,12.73
2018-02-23T14:56:05.412Z,14.63
2018-02-23T14:58:32.978Z,9.97
2018-02-23T15:01:00.558Z,11.37
2018-02-23T15:03:28.151Z,12.10
2018-02-23T15:05:56.540Z,10.43
2018-02-23T15:08:24.936Z,11.53
2018-02-23T15:10:52.539Z,13.53
2018-02-23T15:13:20.108Z,13.37
2018-02-23T15:15:48.767Z,13.33
2018-02-23T15:18:16.392Z,12.47
2018-02-23T15:20:44.765Z,14.37
2018-02-23T15:23:12.406Z,13.47
2018-02-23T15:25:39.992Z,12.93
2018-02-23T15:28:07.567Z,14.23
2018-02-23T15:30:46.882Z,14.53
2018-02-23T15:33:14.494Z,14.30
2018-02-23T15:35:42.572Z,14.13
2018-02-23T15:38:10.163Z,15.60
2018-02-23T15:40:37.777Z,14.40
2018-02-23T15:43:06.120Z,13.67
2018-02-23T15:45:33.723Z,14.93
2018-02-23T15:48:06.993Z,18.07
2018-02-23T15:50:35.301Z,16.67
2018-02-23T15:53:02.905Z,17.73
2018-02-23T15:55:31.370Z,16.00
2018-02-23T15:58:13.856Z,15.37
2018-02-23T16:00:42.264Z,13.80
2018-02-23T16:03:09.879Z,15.70
2018-02-23T16:05:38.248Z,16.83
2018-02-23T16:08:06.892Z,14.93
2018-02-23T16:10:34.468Z,20.73
2018-02-23T16:13:02.081Z,18.67
2018-02-23T16:15:29.710Z,16.53
2018-02-23T16:17:57.323Z,17.67
2018-02-23T16:20:24.918Z,16.27
2018-02-23T16:22:53.266Z,14.07
2018-02-23T16:25:20.822Z,16.33
2018-02-23T16:27:48.412Z,15.57
2018-02-23T16:30:16.766Z,15.80
2018-02-23T16:32:44.368Z,14.93
2018-02-23T16:35:12.722Z,14.13
2018-02-23T16:37:40.327Z,14.37
2018-02-23T16:40:09.441Z,16.17
2018-02-23T16:42:37.042Z,15.17
2018-02-23T16:45:04.637Z,14.17
2018-02-23T16:47:33.050Z,15.33
2018-02-23T16:50:02.072Z,13.43
2018-02-23T16:52:29.644Z,15.10
2018-02-23T16:54:57.270Z,14.67
2018-02-23T16:57:24.940Z,13.40
2018-02-23T16:59:52.530Z,14.33
2018-02-23T17:02:20.084Z,14.30
2018-02-23T17:04:47.697Z,13.80
2018-02-23T17:07:15.270Z,14.63
2018-02-23T17:09:42.858Z,13.07
2018-02-23T17:12:11.226Z,14.50
2018-02-23T17:14:38.848Z,14.80
2018-02-23T17:17:06.433Z,13.37
2018-02-23T17:19:34.040Z,13.30
2018-02-23T17:22:01.648Z,12.87
2018-02-23T17:24:29.279Z,16.53
2018-02-23T17:26:56.873Z,13.63
2018-02-23T17:29:24.455Z,14.67
2018-02-23T17:31:52.021Z,14.13
2018-02-23T17:34:20.208Z,14.80
2018-02-23T17:36:47.844Z,14.20
2018-02-23T17:39:15.438Z,13.30
2018-02-23T17:41:43.995Z,13.43
2018-02-23T17:44:12.536Z,13.20
2018-02-23T17:46:40.532Z,13.90
2018-02-23T17:49:08.117Z,13.67
2018-02-23T17:51:35.755Z,14.67
2018-02-23T17:54:06.042Z,14.10
2018-02-23T17:56:34.669Z,12.73
2018-02-23T17:59:02.310Z,13.67
2018-02-23T18:01:30.244Z,14.77
2018-02-23T18:03:58.194Z,14.20
2018-02-23T18:06:27.016Z,13.37
2018-02-23T18:08:54.717Z,18.70
2018-02-23T18:11:22.317Z,16.03
2018-02-23T18:13:49.897Z,15.57
2018-02-23T18:16:17.533Z,18.70
2018-02-23T18:18:45.917Z,16.70
2018-02-23T18:21:14.254Z,15.17
2018-02-23T18:23:41.827Z,16.60
2018-02-23T18:26:10.384Z,16.63
2018-02-23T18:28:37.982Z,19.37
2018-02-23T18:31:05.576Z,22.13
2018-02-23T18:33:33.123Z,18.67
2018-02-23T18:36:00.766Z,20.10
2018-02-23T18:38:28.368Z,15.83
2018-02-23T18:40:55.961Z,18.37
2018-02-23T18:43:23.546Z,15.07
2018-02-23T18:45:51.120Z,14.93
2018-02-23T18:48:18.706Z,15.67
2018-02-23T18:50:46.285Z,17.60
2018-02-23T18:53:13.872Z,18.27
2018-02-23T18:55:42.253Z,15.40
2018-02-23T18:58:10.583Z,15.53
2018-02-23T19:00:38.150Z,17.33
2018-02-23T19:03:05.756Z,18.47
2018-02-23T19:05:34.144Z,15.90
2018-02-23T19:08:02.529Z,16.53
2018-02-23T19:10:30.153Z,18.03
2018-02-23T19:12:57.729Z,16.50
2018-02-23T19:15:25.314Z,17.63
2018-02-23T19:17:52.919Z,17.63
2018-02-23T19:20:20.492Z,17.13
2018-02-23T19:22:48.083Z,16.70
2018-02-23T19:25:15.752Z,19.57
2018-02-23T19:27:43.322Z,19.00
2018-02-23T19:30:10.894Z,18.47
2018-02-23T19:32:38.492Z,16.97
2018-02-23T19:35:06.068Z,17.17
2018-02-23T19:37:33.614Z,18.30
2018-02-23T19:40:01.988Z,20.17
2018-02-23T19:42:30.599Z,19.37
2018-02-23T19:44:58.204Z,17.83
2018-02-23T19:47:25.816Z,24.73
2018-02-23T19:49:54.595Z,18.83
2018-02-23T19:52:22.934Z,21.27
2018-02-23T19:54:50.517Z,21.90
2018-02-23T19:57:18.117Z,25.13
2018-02-23T19:59:46.482Z,21.37
2018-02-23T20:02:14.847Z,21.90
2018-02-23T20:04:42.426Z,20.03
2018-02-23T20:07:10.018Z,22.63
2018-02-23T20:09:40.002Z,19.40
2018-02-23T20:12:07.574Z,20.87
2018-02-23T20:14:35.207Z,21.87
2018-02-23T20:17:02.811Z,20.20
2018-02-23T20:19:30.392Z,22.53
2018-02-23T20:21:58.838Z,23.20
2018-02-23T20:24:26.420Z,22.20
2018-02-23T20:26:54.100Z,24.60
2018-02-23T20:29:22.623Z,23.30
2018-02-23T20:31:50.349Z,24.53
2018-02-23T20:34:18.133Z,23.33
2018-02-23T20:36:46.507Z,24.63
2018-02-23T20:39:14.277Z,22.60
2018-02-23T20:41:42.051Z,24.10
2018-02-23T20:44:09.824Z,22.17
2018-02-23T20:46:37.608Z,22.20
2018-02-23T20:49:05.333Z,21.73
2018-02-23T20:51:32.946Z,21.77
2018-02-23T20:54:00.630Z,22.03
2018-02-23T20:56:28.420Z,22.77
2018-02-23T20:58:56.871Z,19.97
2018-02-23T21:01:24.556Z,20.47
2018-02-23T21:03:52.159Z,23.90
2018-02-23T21:06:19.810Z,21.10
2018-02-23T21:08:47.429Z,23.67
2018-02-23T21:11:15.147Z,24.03
2018-02-23T21:13:42.747Z,27.20
2018-02-23T21:16:10.315Z,21.20
2018-02-23T21:18:38.641Z,23.47
2018-02-23T21:21:06.270Z,23.77
2018-02-23T21:23:34.677Z,23.70
2018-02-23T21:26:02.286Z,23.20
2018-02-23T21:28:29.855Z,22.43
2018-02-23T21:30:57.446Z,24.93
2018-02-23T21:33:25.844Z,24.13
2018-02-23T21:35:53.464Z,24.23
2018-02-23T21:38:21.038Z,25.33
2018-02-23T21:40:48.636Z,28.03
2018-02-23T21:43:16.292Z,24.83
2018-02-23T21:45:44.657Z,25.53
2018-02-23T21:48:13.000Z,26.43
2018-02-23T21:50:40.625Z,27.23
2018-02-23T21:53:08.199Z,28.53
2018-02-23T21:55:35.777Z,25.03
2018-02-23T21:58:03.384Z,24.87
2018-02-23T22:00:31.017Z,26.57
2018-02-23T22:03:00.239Z,23.93
2018-02-23T22:05:27.837Z,26.83
2018-02-23T22:07:56.106Z,25.70
2018-02-23T22:10:23.680Z,26.00
2018-02-23T22:12:51.266Z,27.07
2018-02-23T22:15:18.968Z,24.73
2018-02-23T22:17:46.577Z,25.20
2018-02-23T22:20:14.993Z,26.43
2018-02-23T22:22:42.620Z,26.07
2018-02-23T22:25:10.205Z,29.80
2018-02-23T22:27:38.580Z,24.57
2018-02-23T22:30:06.953Z,26.03
2018-02-23T22:32:34.533Z,24.60
2018-02-23T22:35:02.151Z,24.73
2018-02-23T22:37:29.762Z,23.13
2018-02-23T22:39:57.346Z,28.10
2018-02-23T22:42:24.946Z,25.57
2018-02-23T22:44:52.565Z,26.37
2018-02-23T22:47:20.866Z,24.63
2018-02-23T22:49:48.460Z,22.17
2018-02-23T22:52:16.085Z,24.80
2018-02-23T22:54:43.649Z,25.57
2018-02-23T22:57:11.230Z,25.13
2018-02-23T22:59:38.826Z,25.53
2018-02-23T23:02:06.464Z,24.07
2018-02-23T23:04:34.044Z,25.50
2018-02-23T23:07:01.654Z,20.93
2018-02-23T23:09:29.226Z,25.67
2018-02-23T23:11:57.573Z,23.93
2018-02-23T23:14:25.649Z,25.17
2018-02-23T23:16:53.249Z,25.33
2018-02-23T23:19:21.614Z,21.33
2018-02-23T23:21:49.203Z,25.77
2018-02-23T23:24:16.835Z,20.57
2018-02-23T23:26:45.197Z,26.37
2018-02-23T23:29:12.790Z,26.80
2018-02-23T23:31:41.163Z,22.43
2018-02-23T23:34:09.491Z,25.17
2018-02-23T23:36:37.123Z,21.10
2018-02-23T23:39:04.750Z,19.03
2018-02-23T23:41:32.337Z,22.20
2018-02-23T23:43:59.932Z,23.03
2018-02-23T23:46:28.293Z,20.73
2018-02-23T23:48:55.895Z,21.10
2018-02-23T23:51:23.464Z,21.60
2018-02-23T23:53:51.071Z,23.00
2018-02-23T23:56:18.658Z,20.23
2018-02-23T23:58:46.252Z,20.67
